KPSX

Palacios Municipal Airport

Palacios, Texas, USA
METAR KPSX 200853Z AUTO 13011KT 10SM SCT025 BKN033 BKN049 27/26 A2978 RMK AO2 SLP084 60002 T02670256 56013
Observed Flight Rules
Jun-20 @ 08:53 UTC (18 minutes ago) Visual Flight Rules
Wind Visibility Clouds
130° at 11 knots 10 miles
  • Scattered at 2,500' AGL
  • Broken at 3,300' AGL
  • Broken at 4,900' AGL
Temperatures Readings
Current 27°C / 81°F
Dewpoint 26°C / 79°F
Humidity 94%
Altimeter 29.78" Hg
Pressure 1008.4 hPa
Elevation 5
METAR KPSX 200853Z AUTO 13011KT 10SM SCT025 BKN033 BKN049 27/26 A2978 RMK AO2 SLP084 60002 T02670256 56013
Observed Flight Rules
Jun-20 @ 08:53 UTC
(18 minutes ago)
VFR
Wind Visibility
130° at 11 knots 10 miles
Clouds
  • Scattered at 2,500' AGL
  • Broken at 3,300' AGL
  • Broken at 4,900' AGL
Temperature Dewpoint
27°C / 81°F 26°C / 79°F
Humidity Altimeter Pressure
94% 29.78" Hg 1008.4 hPa